sensor_id;sensor_type;location;lat;lon;timestamp;temperature;humidity
1377;DHT22;682;52.502;13.488;2022-08-20T00:01:50;22.30;1.00
1377;DHT22;682;52.502;13.488;2022-08-20T00:04:17;22.40;1.00
1377;DHT22;682;52.502;13.488;2022-08-20T00:06:44;22.40;1.00
1377;DHT22;682;52.502;13.488;2022-08-20T00:09:12;22.30;1.00
1377;DHT22;682;52.502;13.488;2022-08-20T00:11:41;22.30;1.00
1377;DHT22;682;52.502;13.488;2022-08-20T00:14:08;22.20;1.00
1377;DHT22;682;52.502;13.488;2022-08-20T00:16:36;22.10;1.00
1377;DHT22;682;52.502;13.488;2022-08-20T00:19:05;22.10;1.00
1377;DHT22;682;52.502;13.488;2022-08-20T00:21:32;22.00;1.00
1377;DHT22;682;52.502;13.488;2022-08-20T00:24:00;21.90;1.00
1377;DHT22;682;52.502;13.488;2022-08-20T00:26:27;21.90;1.00
1377;DHT22;682;52.502;13.488;2022-08-20T00:28:55;21.90;1.00
1377;DHT22;682;52.502;13.488;2022-08-20T00:31:23;21.90;1.00
1377;DHT22;682;52.502;13.488;2022-08-20T00:33:50;21.90;1.00
1377;DHT22;682;52.502;13.488;2022-08-20T00:36:18;21.90;1.00
1377;DHT22;682;52.502;13.488;2022-08-20T00:38:46;21.90;1.00
1377;DHT22;682;52.502;13.488;2022-08-20T00:41:15;21.80;1.00
1377;DHT22;682;52.502;13.488;2022-08-20T00:43:45;21.80;1.00
1377;DHT22;682;52.502;13.488;2022-08-20T00:46:17;21.80;1.00
1377;DHT22;682;52.502;13.488;2022-08-20T00:48:46;21.70;1.00
1377;DHT22;682;52.502;13.488;2022-08-20T00:51:20;21.80;1.00
1377;DHT22;682;52.502;13.488;2022-08-20T00:53:48;21.80;1.00
1377;DHT22;682;52.502;13.488;2022-08-20T00:56:14;21.80;1.00
1377;DHT22;682;52.502;13.488;2022-08-20T00:58:42;21.70;1.00
1377;DHT22;682;52.502;13.488;2022-08-20T01:01:11;21.60;1.00
1377;DHT22;682;52.502;13.488;2022-08-20T01:03:40;21.60;1.00
1377;DHT22;682;52.502;13.488;2022-08-20T01:06:08;21.50;1.00
1377;DHT22;682;52.502;13.488;2022-08-20T01:08:37;21.50;1.00
1377;DHT22;682;52.502;13.488;2022-08-20T01:11:04;21.50;1.00
1377;DHT22;682;52.502;13.488;2022-08-20T01:13:38;21.50;1.00
1377;DHT22;682;52.502;13.488;2022-08-20T01:16:15;21.40;1.00
1377;DHT22;682;52.502;13.488;2022-08-20T01:18:45;21.30;1.00
1377;DHT22;682;52.502;13.488;2022-08-20T01:21:16;21.20;1.00
1377;DHT22;682;52.502;13.488;2022-08-20T01:23:53;21.20;1.00
1377;DHT22;682;52.502;13.488;2022-08-20T01:26:25;21.20;1.00
1377;DHT22;682;52.502;13.488;2022-08-20T01:28:56;21.20;1.00
1377;DHT22;682;52.502;13.488;2022-08-20T01:31:26;21.10;1.00
1377;DHT22;682;52.502;13.488;2022-08-20T01:33:54;21.10;1.00
1377;DHT22;682;52.502;13.488;2022-08-20T01:36:25;21.00;1.00
1377;DHT22;682;52.502;13.488;2022-08-20T01:38:55;21.00;1.00
1377;DHT22;682;52.502;13.488;2022-08-20T01:41:32;20.90;1.00
1377;DHT22;682;52.502;13.488;2022-08-20T01:44:03;20.90;1.00
1377;DHT22;682;52.502;13.488;2022-08-20T01:46:34;20.90;1.00
1377;DHT22;682;52.502;13.488;2022-08-20T01:49:08;20.90;1.00
1377;DHT22;682;52.502;13.488;2022-08-20T01:51:36;20.90;1.00
1377;DHT22;682;52.502;13.488;2022-08-20T01:54:03;20.80;1.00
1377;DHT22;682;52.502;13.488;2022-08-20T01:56:33;20.70;1.00
1377;DHT22;682;52.502;13.488;2022-08-20T01:59:02;20.70;1.00
1377;DHT22;682;52.502;13.488;2022-08-20T02:01:33;20.70;1.00
1377;DHT22;682;52.502;13.488;2022-08-20T02:04:02;20.70;1.00
1377;DHT22;682;52.502;13.488;2022-08-20T02:06:32;20.70;1.00
1377;DHT22;682;52.502;13.488;2022-08-20T02:09:01;20.70;1.00
1377;DHT22;682;52.502;13.488;2022-08-20T02:11:30;20.70;1.00
1377;DHT22;682;52.502;13.488;2022-08-20T02:14:02;20.70;1.00
1377;DHT22;682;52.502;13.488;2022-08-20T02:16:32;20.70;1.00
1377;DHT22;682;52.502;13.488;2022-08-20T02:19:06;20.70;1.00
1377;DHT22;682;52.502;13.488;2022-08-20T02:21:36;20.70;1.00
1377;DHT22;682;52.502;13.488;2022-08-20T02:24:04;20.70;1.00
1377;DHT22;682;52.502;13.488;2022-08-20T02:26:31;20.70;1.00
1377;DHT22;682;52.502;13.488;2022-08-20T02:29:05;20.70;1.00
1377;DHT22;682;52.502;13.488;2022-08-20T02:31:33;20.60;1.00
1377;DHT22;682;52.502;13.488;2022-08-20T02:34:01;20.60;1.00
1377;DHT22;682;52.502;13.488;2022-08-20T02:36:28;20.60;1.00
1377;DHT22;682;52.502;13.488;2022-08-20T02:38:55;20.50;1.00
1377;DHT22;682;52.502;13.488;2022-08-20T02:41:22;20.50;1.00
1377;DHT22;682;52.502;13.488;2022-08-20T02:43:49;20.50;1.00
1377;DHT22;682;52.502;13.488;2022-08-20T02:46:18;20.40;1.00
1377;DHT22;682;52.502;13.488;2022-08-20T02:48:44;20.40;1.00
1377;DHT22;682;52.502;13.488;2022-08-20T02:51:11;20.40;1.00
1377;DHT22;682;52.502;13.488;2022-08-20T02:53:41;20.30;1.00
1377;DHT22;682;52.502;13.488;2022-08-20T02:56:09;20.30;1.00
1377;DHT22;682;52.502;13.488;2022-08-20T02:58:37;20.30;1.00
1377;DHT22;682;52.502;13.488;2022-08-20T03:01:07;20.30;1.00
1377;DHT22;682;52.502;13.488;2022-08-20T03:03:38;20.30;1.00
1377;DHT22;682;52.502;13.488;2022-08-20T03:06:06;20.30;1.00
1377;DHT22;682;52.502;13.488;2022-08-20T03:08:33;20.40;1.00
1377;DHT22;682;52.502;13.488;2022-08-20T03:11:01;20.40;1.00
1377;DHT22;682;52.502;13.488;2022-08-20T03:13:27;20.40;1.00
1377;DHT22;682;52.502;13.488;2022-08-20T03:15:56;20.40;1.00
1377;DHT22;682;52.502;13.488;2022-08-20T03:18:26;20.40;1.00
1377;DHT22;682;52.502;13.488;2022-08-20T03:20:54;20.40;1.00
1377;DHT22;682;52.502;13.488;2022-08-20T03:23:21;20.40;1.00
1377;DHT22;682;52.502;13.488;2022-08-20T03:25:48;20.40;1.00
1377;DHT22;682;52.502;13.488;2022-08-20T03:28:15;20.40;1.00
1377;DHT22;682;52.502;13.488;2022-08-20T03:30:43;20.40;1.00
1377;DHT22;682;52.502;13.488;2022-08-20T03:33:10;20.40;1.00
1377;DHT22;682;52.502;13.488;2022-08-20T03:35:37;20.40;1.00
1377;DHT22;682;52.502;13.488;2022-08-20T03:38:10;20.40;1.00
1377;DHT22;682;52.502;13.488;2022-08-20T03:40:37;20.40;1.00
1377;DHT22;682;52.502;13.488;2022-08-20T03:43:06;20.40;1.00
1377;DHT22;682;52.502;13.488;2022-08-20T03:45:35;20.50;1.00
1377;DHT22;682;52.502;13.488;2022-08-20T03:48:04;20.50;1.00
1377;DHT22;682;52.502;13.488;2022-08-20T03:50:32;20.50;1.00
1377;DHT22;682;52.502;13.488;2022-08-20T03:52:59;20.60;1.00
1377;DHT22;682;52.502;13.488;2022-08-20T03:55:29;20.60;1.00
1377;DHT22;682;52.502;13.488;2022-08-20T03:57:59;20.60;1.00
1377;DHT22;682;52.502;13.488;2022-08-20T04:00:30;20.50;1.00
1377;DHT22;682;52.502;13.488;2022-08-20T04:02:57;20.50;1.00
1377;DHT22;682;52.502;13.488;2022-08-20T04:05:25;20.50;1.00
1377;DHT22;682;52.502;13.488;2022-08-20T04:07:52;20.50;1.00
1377;DHT22;682;52.502;13.488;2022-08-20T04:10:19;20.50;1.00
1377;DHT22;682;52.502;13.488;2022-08-20T04:12:47;20.50;1.00
1377;DHT22;682;52.502;13.488;2022-08-20T04:15:15;20.50;1.00
1377;DHT22;682;52.502;13.488;2022-08-20T04:17:46;20.60;1.00
1377;DHT22;682;52.502;13.488;2022-08-20T04:20:15;20.60;1.00
1377;DHT22;682;52.502;13.488;2022-08-20T04:22:43;20.50;1.00
1377;DHT22;682;52.502;13.488;2022-08-20T04:25:12;20.60;1.00
1377;DHT22;682;52.502;13.488;2022-08-20T04:27:39;20.60;1.00
1377;DHT22;682;52.502;13.488;2022-08-20T04:30:11;20.50;1.00
1377;DHT22;682;52.502;13.488;2022-08-20T04:32:39;20.50;1.00
1377;DHT22;682;52.502;13.488;2022-08-20T04:35:08;20.50;1.00
1377;DHT22;682;52.502;13.488;2022-08-20T04:37:36;20.60;1.00
1377;DHT22;682;52.502;13.488;2022-08-20T04:40:05;20.50;1.00
1377;DHT22;682;52.502;13.488;2022-08-20T04:42:50;20.60;1.00
1377;DHT22;682;52.502;13.488;2022-08-20T04:45:19;20.60;1.00
1377;DHT22;682;52.502;13.488;2022-08-20T04:47:46;20.70;1.00
1377;DHT22;682;52.502;13.488;2022-08-20T04:50:15;20.70;1.00
1377;DHT22;682;52.502;13.488;2022-08-20T04:52:42;20.70;1.00
1377;DHT22;682;52.502;13.488;2022-08-20T04:55:09;20.70;1.00
1377;DHT22;682;52.502;13.488;2022-08-20T04:57:36;20.60;1.00
1377;DHT22;682;52.502;13.488;2022-08-20T05:00:06;20.60;1.00
1377;DHT22;682;52.502;13.488;2022-08-20T05:02:36;20.60;1.00
1377;DHT22;682;52.502;13.488;2022-08-20T05:05:03;20.60;1.00
1377;DHT22;682;52.502;13.488;2022-08-20T05:07:37;20.60;1.00
1377;DHT22;682;52.502;13.488;2022-08-20T05:10:06;20.60;1.00
1377;DHT22;682;52.502;13.488;2022-08-20T05:12:34;20.70;1.00
1377;DHT22;682;52.502;13.488;2022-08-20T05:15:02;20.80;1.00
1377;DHT22;682;52.502;13.488;2022-08-20T05:17:29;20.80;1.00
1377;DHT22;682;52.502;13.488;2022-08-20T05:19:57;20.80;1.00
1377;DHT22;682;52.502;13.488;2022-08-20T05:22:24;20.80;1.00
1377;DHT22;682;52.502;13.488;2022-08-20T05:24:52;20.90;1.00
1377;DHT22;682;52.502;13.488;2022-08-20T05:27:21;21.00;1.00
1377;DHT22;682;52.502;13.488;2022-08-20T05:29:52;21.00;1.00
1377;DHT22;682;52.502;13.488;2022-08-20T05:32:20;21.10;1.00
1377;DHT22;682;52.502;13.488;2022-08-20T05:34:47;21.20;1.00
1377;DHT22;682;52.502;13.488;2022-08-20T05:37:15;21.30;1.00
1377;DHT22;682;52.502;13.488;2022-08-20T05:39:42;21.40;1.00
1377;DHT22;682;52.502;13.488;2022-08-20T05:42:09;21.40;1.00
1377;DHT22;682;52.502;13.488;2022-08-20T05:44:36;21.50;1.00
1377;DHT22;682;52.502;13.488;2022-08-20T05:47:06;21.50;1.00
1377;DHT22;682;52.502;13.488;2022-08-20T05:49:33;21.60;1.00
1377;DHT22;682;52.502;13.488;2022-08-20T05:52:00;21.80;1.00
1377;DHT22;682;52.502;13.488;2022-08-20T05:54:28;21.80;1.00
1377;DHT22;682;52.502;13.488;2022-08-20T05:56:55;21.90;1.00
1377;DHT22;682;52.502;13.488;2022-08-20T05:59:22;22.00;1.00
1377;DHT22;682;52.502;13.488;2022-08-20T06:01:50;22.20;1.00
1377;DHT22;682;52.502;13.488;2022-08-20T06:04:18;22.10;1.00
1377;DHT22;682;52.502;13.488;2022-08-20T06:06:53;22.20;1.00
1377;DHT22;682;52.502;13.488;2022-08-20T06:09:22;22.30;1.00
1377;DHT22;682;52.502;13.488;2022-08-20T06:11:50;22.30;1.00
1377;DHT22;682;52.502;13.488;2022-08-20T06:14:17;22.20;1.00
1377;DHT22;682;52.502;13.488;2022-08-20T06:16:45;22.20;1.00
1377;DHT22;682;52.502;13.488;2022-08-20T06:19:12;22.20;1.00
1377;DHT22;682;52.502;13.488;2022-08-20T06:21:41;22.10;1.00
1377;DHT22;682;52.502;13.488;2022-08-20T06:24:08;22.00;1.00
1377;DHT22;682;52.502;13.488;2022-08-20T06:26:35;22.00;1.00
1377;DHT22;682;52.502;13.488;2022-08-20T06:29:04;22.00;1.00
1377;DHT22;682;52.502;13.488;2022-08-20T06:31:32;22.00;1.00
1377;DHT22;682;52.502;13.488;2022-08-20T06:33:59;22.00;1.00
1377;DHT22;682;52.502;13.488;2022-08-20T06:36:26;21.90;1.00
1377;DHT22;682;52.502;13.488;2022-08-20T06:38:54;21.90;1.00
1377;DHT22;682;52.502;13.488;2022-08-20T06:41:23;21.80;1.00
1377;DHT22;682;52.502;13.488;2022-08-20T06:43:50;21.90;1.00
1377;DHT22;682;52.502;13.488;2022-08-20T06:46:19;21.80;1.00
1377;DHT22;682;52.502;13.488;2022-08-20T06:48:48;21.80;1.00
1377;DHT22;682;52.502;13.488;2022-08-20T06:51:16;21.80;1.00
1377;DHT22;682;52.502;13.488;2022-08-20T06:53:43;21.80;1.00
1377;DHT22;682;52.502;13.488;2022-08-20T06:56:10;21.70;1.00
1377;DHT22;682;52.502;13.488;2022-08-20T06:58:37;21.70;1.00
1377;DHT22;682;52.502;13.488;2022-08-20T07:01:05;21.70;1.00
1377;DHT22;682;52.502;13.488;2022-08-20T07:03:33;21.60;1.00
1377;DHT22;682;52.502;13.488;2022-08-20T07:06:01;21.80;1.00
1377;DHT22;682;52.502;13.488;2022-08-20T07:08:28;21.80;1.00
1377;DHT22;682;52.502;13.488;2022-08-20T07:10:55;21.80;1.00
1377;DHT22;682;52.502;13.488;2022-08-20T07:13:22;21.90;1.00
1377;DHT22;682;52.502;13.488;2022-08-20T07:15:49;21.90;1.00
1377;DHT22;682;52.502;13.488;2022-08-20T07:18:16;21.90;1.00
1377;DHT22;682;52.502;13.488;2022-08-20T07:20:44;22.00;1.00
1377;DHT22;682;52.502;13.488;2022-08-20T07:23:11;22.10;1.00
1377;DHT22;682;52.502;13.488;2022-08-20T07:25:40;22.10;1.00
1377;DHT22;682;52.502;13.488;2022-08-20T07:28:12;22.10;1.00
1377;DHT22;682;52.502;13.488;2022-08-20T07:30:40;22.20;1.00
1377;DHT22;682;52.502;13.488;2022-08-20T07:33:25;22.20;1.00
1377;DHT22;682;52.502;13.488;2022-08-20T07:35:56;22.20;1.00
1377;DHT22;682;52.502;13.488;2022-08-20T07:38:25;22.20;1.00
1377;DHT22;682;52.502;13.488;2022-08-20T07:40:53;22.20;1.00
1377;DHT22;682;52.502;13.488;2022-08-20T07:43:21;22.10;1.00
1377;DHT22;682;52.502;13.488;2022-08-20T07:45:48;22.00;1.00
1377;DHT22;682;52.502;13.488;2022-08-20T07:48:16;22.00;1.00
1377;DHT22;682;52.502;13.488;2022-08-20T07:50:43;22.00;1.00
1377;DHT22;682;52.502;13.488;2022-08-20T07:53:11;22.00;1.00
1377;DHT22;682;52.502;13.488;2022-08-20T07:55:38;22.00;1.00
1377;DHT22;682;52.502;13.488;2022-08-20T07:58:07;22.00;1.00
1377;DHT22;682;52.502;13.488;2022-08-20T08:00:35;21.90;1.00
1377;DHT22;682;52.502;13.488;2022-08-20T08:03:02;22.00;1.00
1377;DHT22;682;52.502;13.488;2022-08-20T08:05:30;22.00;1.00
1377;DHT22;682;52.502;13.488;2022-08-20T08:07:59;21.90;1.00
1377;DHT22;682;52.502;13.488;2022-08-20T08:10:28;21.90;1.00
1377;DHT22;682;52.502;13.488;2022-08-20T08:12:59;21.90;1.00
1377;DHT22;682;52.502;13.488;2022-08-20T08:15:32;22.00;1.00
1377;DHT22;682;52.502;13.488;2022-08-20T08:18:04;22.00;1.00
1377;DHT22;682;52.502;13.488;2022-08-20T08:20:33;22.00;1.00
1377;DHT22;682;52.502;13.488;2022-08-20T08:23:01;22.10;1.00
1377;DHT22;682;52.502;13.488;2022-08-20T08:25:29;22.10;1.00
1377;DHT22;682;52.502;13.488;2022-08-20T08:27:57;22.10;1.00
1377;DHT22;682;52.502;13.488;2022-08-20T08:30:26;22.20;1.00
1377;DHT22;682;52.502;13.488;2022-08-20T08:32:53;22.20;1.00
1377;DHT22;682;52.502;13.488;2022-08-20T08:35:39;22.20;1.00
1377;DHT22;682;52.502;13.488;2022-08-20T08:38:07;22.20;1.00
1377;DHT22;682;52.502;13.488;2022-08-20T08:40:35;22.20;1.00
1377;DHT22;682;52.502;13.488;2022-08-20T08:43:03;22.30;1.00
1377;DHT22;682;52.502;13.488;2022-08-20T08:45:34;22.40;1.00
1377;DHT22;682;52.502;13.488;2022-08-20T08:48:05;22.50;1.00
1377;DHT22;682;52.502;13.488;2022-08-20T08:50:33;22.50;1.00
1377;DHT22;682;52.502;13.488;2022-08-20T08:53:02;22.60;1.00
1377;DHT22;682;52.502;13.488;2022-08-20T08:55:30;22.70;1.00
1377;DHT22;682;52.502;13.488;2022-08-20T08:58:04;22.70;1.00
1377;DHT22;682;52.502;13.488;2022-08-20T09:00:47;22.80;1.00
1377;DHT22;682;52.502;13.488;2022-08-20T09:03:26;22.90;1.00
1377;DHT22;682;52.502;13.488;2022-08-20T09:05:58;23.00;1.00
1377;DHT22;682;52.502;13.488;2022-08-20T09:08:36;23.00;1.00
1377;DHT22;682;52.502;13.488;2022-08-20T09:11:07;23.10;1.00
1377;DHT22;682;52.502;13.488;2022-08-20T09:13:51;23.10;1.00
1377;DHT22;682;52.502;13.488;2022-08-20T09:16:20;23.10;1.00
1377;DHT22;682;52.502;13.488;2022-08-20T09:18:50;23.20;1.00
1377;DHT22;682;52.502;13.488;2022-08-20T09:21:21;23.20;1.00
1377;DHT22;682;52.502;13.488;2022-08-20T09:23:48;23.30;1.00
1377;DHT22;682;52.502;13.488;2022-08-20T09:26:14;23.30;1.00
1377;DHT22;682;52.502;13.488;2022-08-20T09:28:41;23.40;1.00
1377;DHT22;682;52.502;13.488;2022-08-20T09:31:10;23.50;1.00
1377;DHT22;682;52.502;13.488;2022-08-20T09:33:37;23.70;1.00
1377;DHT22;682;52.502;13.488;2022-08-20T09:36:04;23.80;1.00
1377;DHT22;682;52.502;13.488;2022-08-20T09:38:31;23.90;1.00
1377;DHT22;682;52.502;13.488;2022-08-20T09:40:58;23.90;1.00
1377;DHT22;682;52.502;13.488;2022-08-20T09:43:27;23.90;1.00
1377;DHT22;682;52.502;13.488;2022-08-20T09:45:53;23.80;1.00
1377;DHT22;682;52.502;13.488;2022-08-20T09:48:22;23.80;1.00
1377;DHT22;682;52.502;13.488;2022-08-20T09:50:49;23.90;1.00
1377;DHT22;682;52.502;13.488;2022-08-20T09:53:17;23.90;1.00
1377;DHT22;682;52.502;13.488;2022-08-20T09:55:48;23.90;1.00
1377;DHT22;682;52.502;13.488;2022-08-20T09:58:20;23.90;1.00
1377;DHT22;682;52.502;13.488;2022-08-20T10:00:47;24.10;1.00
1377;DHT22;682;52.502;13.488;2022-08-20T10:03:14;24.10;1.00
1377;DHT22;682;52.502;13.488;2022-08-20T10:05:43;24.20;1.00
1377;DHT22;682;52.502;13.488;2022-08-20T10:08:11;24.20;1.00
1377;DHT22;682;52.502;13.488;2022-08-20T10:10:38;24.20;1.00
1377;DHT22;682;52.502;13.488;2022-08-20T10:13:06;24.20;1.00
1377;DHT22;682;52.502;13.488;2022-08-20T10:15:32;24.10;1.00
1377;DHT22;682;52.502;13.488;2022-08-20T10:18:02;24.00;1.00
1377;DHT22;682;52.502;13.488;2022-08-20T10:20:30;24.00;1.00
1377;DHT22;682;52.502;13.488;2022-08-20T10:23:01;24.00;1.00
1377;DHT22;682;52.502;13.488;2022-08-20T10:25:29;24.10;1.00
1377;DHT22;682;52.502;13.488;2022-08-20T10:27:56;24.20;1.00
1377;DHT22;682;52.502;13.488;2022-08-20T10:30:23;24.30;1.00
1377;DHT22;682;52.502;13.488;2022-08-20T10:32:52;24.40;1.00
1377;DHT22;682;52.502;13.488;2022-08-20T10:35:19;24.40;1.00
1377;DHT22;682;52.502;13.488;2022-08-20T10:37:48;24.40;1.00
1377;DHT22;682;52.502;13.488;2022-08-20T10:40:16;24.30;1.00
1377;DHT22;682;52.502;13.488;2022-08-20T10:42:44;24.40;1.00
1377;DHT22;682;52.502;13.488;2022-08-20T10:45:12;24.60;1.00
1377;DHT22;682;52.502;13.488;2022-08-20T10:47:40;24.70;1.00
1377;DHT22;682;52.502;13.488;2022-08-20T10:50:10;24.60;1.00
1377;DHT22;682;52.502;13.488;2022-08-20T10:52:40;24.60;1.00
1377;DHT22;682;52.502;13.488;2022-08-20T10:55:08;24.80;1.00
1377;DHT22;682;52.502;13.488;2022-08-20T10:57:39;24.90;1.00
1377;DHT22;682;52.502;13.488;2022-08-20T11:00:07;25.10;1.00
1377;DHT22;682;52.502;13.488;2022-08-20T11:02:35;25.10;1.00
1377;DHT22;682;52.502;13.488;2022-08-20T11:05:03;25.20;1.00
1377;DHT22;682;52.502;13.488;2022-08-20T11:07:33;25.40;1.00
1377;DHT22;682;52.502;13.488;2022-08-20T11:10:01;25.60;1.00
1377;DHT22;682;52.502;13.488;2022-08-20T11:12:31;25.90;1.00
1377;DHT22;682;52.502;13.488;2022-08-20T11:15:10;26.00;1.00
1377;DHT22;682;52.502;13.488;2022-08-20T11:17:40;26.10;1.00
1377;DHT22;682;52.502;13.488;2022-08-20T11:20:09;26.00;1.00
1377;DHT22;682;52.502;13.488;2022-08-20T11:22:36;25.90;1.00
1377;DHT22;682;52.502;13.488;2022-08-20T11:25:06;25.80;1.00
1377;DHT22;682;52.502;13.488;2022-08-20T11:27:36;25.60;1.00
1377;DHT22;682;52.502;13.488;2022-08-20T11:30:06;25.30;1.00
1377;DHT22;682;52.502;13.488;2022-08-20T11:32:35;25.10;1.00
1377;DHT22;682;52.502;13.488;2022-08-20T11:35:04;24.90;1.00
1377;DHT22;682;52.502;13.488;2022-08-20T11:37:38;24.60;1.00
1377;DHT22;682;52.502;13.488;2022-08-20T11:40:10;24.50;1.00
1377;DHT22;682;52.502;13.488;2022-08-20T11:42:37;24.60;1.00
1377;DHT22;682;52.502;13.488;2022-08-20T11:45:05;24.50;1.00
1377;DHT22;682;52.502;13.488;2022-08-20T11:47:33;24.50;1.00
1377;DHT22;682;52.502;13.488;2022-08-20T11:50:06;24.60;1.00
1377;DHT22;682;52.502;13.488;2022-08-20T11:52:36;24.60;1.00
1377;DHT22;682;52.502;13.488;2022-08-20T11:55:05;24.70;1.00
1377;DHT22;682;52.502;13.488;2022-08-20T11:57:39;24.70;1.00
1377;DHT22;682;52.502;13.488;2022-08-20T12:00:10;24.80;1.00
1377;DHT22;682;52.502;13.488;2022-08-20T12:02:38;24.80;1.00
1377;DHT22;682;52.502;13.488;2022-08-20T12:05:12;24.80;1.00
1377;DHT22;682;52.502;13.488;2022-08-20T12:07:43;24.90;1.00
1377;DHT22;682;52.502;13.488;2022-08-20T12:10:11;25.00;1.00
1377;DHT22;682;52.502;13.488;2022-08-20T12:12:38;24.90;1.00
1377;DHT22;682;52.502;13.488;2022-08-20T12:15:07;24.80;1.00
1377;DHT22;682;52.502;13.488;2022-08-20T12:17:35;24.80;1.00
1377;DHT22;682;52.502;13.488;2022-08-20T12:20:12;24.90;1.00
1377;DHT22;682;52.502;13.488;2022-08-20T12:22:39;25.00;1.00
1377;DHT22;682;52.502;13.488;2022-08-20T12:25:07;25.00;1.00
1377;DHT22;682;52.502;13.488;2022-08-20T12:27:36;25.00;1.00
1377;DHT22;682;52.502;13.488;2022-08-20T12:30:07;25.00;1.00
1377;DHT22;682;52.502;13.488;2022-08-20T12:32:36;25.10;1.00
1377;DHT22;682;52.502;13.488;2022-08-20T12:35:06;25.10;1.00
1377;DHT22;682;52.502;13.488;2022-08-20T12:37:36;24.90;1.00
1377;DHT22;682;52.502;13.488;2022-08-20T12:40:06;24.90;1.00
1377;DHT22;682;52.502;13.488;2022-08-20T12:42:35;24.80;1.00
1377;DHT22;682;52.502;13.488;2022-08-20T12:45:04;24.70;1.00
1377;DHT22;682;52.502;13.488;2022-08-20T12:47:35;24.60;1.00
1377;DHT22;682;52.502;13.488;2022-08-20T12:50:05;24.50;1.00
1377;DHT22;682;52.502;13.488;2022-08-20T12:52:35;24.40;1.00
1377;DHT22;682;52.502;13.488;2022-08-20T12:55:05;24.20;1.00
1377;DHT22;682;52.502;13.488;2022-08-20T12:57:34;24.00;1.00
1377;DHT22;682;52.502;13.488;2022-08-20T13:00:05;23.90;1.00
1377;DHT22;682;52.502;13.488;2022-08-20T13:02:33;23.80;1.00
1377;DHT22;682;52.502;13.488;2022-08-20T13:05:01;23.70;1.00
1377;DHT22;682;52.502;13.488;2022-08-20T13:07:29;23.70;1.00
1377;DHT22;682;52.502;13.488;2022-08-20T13:09:59;23.70;1.00
1377;DHT22;682;52.502;13.488;2022-08-20T13:12:28;23.60;1.00
1377;DHT22;682;52.502;13.488;2022-08-20T13:14:55;23.50;1.00
1377;DHT22;682;52.502;13.488;2022-08-20T13:17:22;23.40;1.00
1377;DHT22;682;52.502;13.488;2022-08-20T13:19:49;23.30;1.00
1377;DHT22;682;52.502;13.488;2022-08-20T13:22:16;23.20;1.00
1377;DHT22;682;52.502;13.488;2022-08-20T13:24:43;23.20;1.00
1377;DHT22;682;52.502;13.488;2022-08-20T13:27:13;23.20;1.00
1377;DHT22;682;52.502;13.488;2022-08-20T13:29:45;23.10;1.00
1377;DHT22;682;52.502;13.488;2022-08-20T13:32:12;23.10;1.00
1377;DHT22;682;52.502;13.488;2022-08-20T13:34:39;23.10;1.00
1377;DHT22;682;52.502;13.488;2022-08-20T13:37:11;23.10;1.00
1377;DHT22;682;52.502;13.488;2022-08-20T13:39:42;23.00;1.00
1377;DHT22;682;52.502;13.488;2022-08-20T13:42:11;22.90;1.00
1377;DHT22;682;52.502;13.488;2022-08-20T13:44:39;22.80;1.00
1377;DHT22;682;52.502;13.488;2022-08-20T13:47:13;22.70;1.00
1377;DHT22;682;52.502;13.488;2022-08-20T13:49:40;22.60;1.00
1377;DHT22;682;52.502;13.488;2022-08-20T13:52:07;22.50;1.00
1377;DHT22;682;52.502;13.488;2022-08-20T13:54:36;22.30;1.00
1377;DHT22;682;52.502;13.488;2022-08-20T13:57:05;22.30;1.00
1377;DHT22;682;52.502;13.488;2022-08-20T13:59:39;22.20;1.00
1377;DHT22;682;52.502;13.488;2022-08-20T14:02:08;22.10;1.00
1377;DHT22;682;52.502;13.488;2022-08-20T14:04:36;22.00;1.00
1377;DHT22;682;52.502;13.488;2022-08-20T14:07:13;21.90;1.00
1377;DHT22;682;52.502;13.488;2022-08-20T14:09:41;21.90;1.00
1377;DHT22;682;52.502;13.488;2022-08-20T14:12:10;21.90;1.00
1377;DHT22;682;52.502;13.488;2022-08-20T14:14:42;21.90;1.00
1377;DHT22;682;52.502;13.488;2022-08-20T14:17:14;21.90;1.00
1377;DHT22;682;52.502;13.488;2022-08-20T14:19:41;21.90;1.00
1377;DHT22;682;52.502;13.488;2022-08-20T14:22:08;21.80;1.00
1377;DHT22;682;52.502;13.488;2022-08-20T14:24:36;21.70;1.00
1377;DHT22;682;52.502;13.488;2022-08-20T14:27:07;21.60;1.00
1377;DHT22;682;52.502;13.488;2022-08-20T14:29:35;21.60;1.00
1377;DHT22;682;52.502;13.488;2022-08-20T14:32:04;21.70;1.00
1377;DHT22;682;52.502;13.488;2022-08-20T14:34:32;21.70;1.00
1377;DHT22;682;52.502;13.488;2022-08-20T14:37:09;21.60;1.00
1377;DHT22;682;52.502;13.488;2022-08-20T14:39:35;21.60;1.00
1377;DHT22;682;52.502;13.488;2022-08-20T14:42:02;21.60;1.00
1377;DHT22;682;52.502;13.488;2022-08-20T14:44:30;21.60;1.00
1377;DHT22;682;52.502;13.488;2022-08-20T14:47:10;21.60;1.00
1377;DHT22;682;52.502;13.488;2022-08-20T14:49:38;21.70;1.00
1377;DHT22;682;52.502;13.488;2022-08-20T14:52:05;21.80;1.00
1377;DHT22;682;52.502;13.488;2022-08-20T14:54:32;21.80;1.00
1377;DHT22;682;52.502;13.488;2022-08-20T14:57:00;21.80;1.00
1377;DHT22;682;52.502;13.488;2022-08-20T14:59:29;21.70;1.00
1377;DHT22;682;52.502;13.488;2022-08-20T15:01:56;21.70;1.00
1377;DHT22;682;52.502;13.488;2022-08-20T15:04:24;21.70;1.00
1377;DHT22;682;52.502;13.488;2022-08-20T15:06:52;21.60;1.00
1377;DHT22;682;52.502;13.488;2022-08-20T15:09:19;21.70;1.00
1377;DHT22;682;52.502;13.488;2022-08-20T15:11:46;21.60;1.00
1377;DHT22;682;52.502;13.488;2022-08-20T15:14:14;21.50;1.00
1377;DHT22;682;52.502;13.488;2022-08-20T15:16:44;21.50;1.00
1377;DHT22;682;52.502;13.488;2022-08-20T15:19:12;21.50;1.00
1377;DHT22;682;52.502;13.488;2022-08-20T15:21:40;21.50;1.00
1377;DHT22;682;52.502;13.488;2022-08-20T15:24:07;21.50;1.00
1377;DHT22;682;52.502;13.488;2022-08-20T15:26:34;21.50;1.00
1377;DHT22;682;52.502;13.488;2022-08-20T15:29:02;21.50;1.00
1377;DHT22;682;52.502;13.488;2022-08-20T15:31:28;21.60;1.00
1377;DHT22;682;52.502;13.488;2022-08-20T15:33:57;21.70;1.00
1377;DHT22;682;52.502;13.488;2022-08-20T15:36:26;21.70;1.00
1377;DHT22;682;52.502;13.488;2022-08-20T15:38:54;21.80;1.00
1377;DHT22;682;52.502;13.488;2022-08-20T15:41:21;21.90;1.00
1377;DHT22;682;52.502;13.488;2022-08-20T15:43:48;22.00;1.00
1377;DHT22;682;52.502;13.488;2022-08-20T15:46:15;22.10;1.00
1377;DHT22;682;52.502;13.488;2022-08-20T15:48:45;22.10;1.00
1377;DHT22;682;52.502;13.488;2022-08-20T15:51:22;22.00;1.00
1377;DHT22;682;52.502;13.488;2022-08-20T15:54:06;22.10;1.00
1377;DHT22;682;52.502;13.488;2022-08-20T15:59:29;22.00;1.00
1377;DHT22;682;52.502;13.488;2022-08-20T16:02:11;21.90;1.00
1377;DHT22;682;52.502;13.488;2022-08-20T16:05:19;21.80;1.00
1377;DHT22;682;52.502;13.488;2022-08-20T16:07:53;21.70;1.00
1377;DHT22;682;52.502;13.488;2022-08-20T16:10:31;21.60;1.00
1377;DHT22;682;52.502;13.488;2022-08-20T16:13:11;21.50;1.00
1377;DHT22;682;52.502;13.488;2022-08-20T16:15:44;21.40;1.00
1377;DHT22;682;52.502;13.488;2022-08-20T16:18:15;21.40;1.00
1377;DHT22;682;52.502;13.488;2022-08-20T16:20:47;21.30;1.00
1377;DHT22;682;52.502;13.488;2022-08-20T16:23:16;21.20;1.00
1377;DHT22;682;52.502;13.488;2022-08-20T16:25:53;21.30;1.00
1377;DHT22;682;52.502;13.488;2022-08-20T16:28:26;21.20;1.00
1377;DHT22;682;52.502;13.488;2022-08-20T16:30:59;21.30;1.00
1377;DHT22;682;52.502;13.488;2022-08-20T16:33:31;21.30;1.00